Tuesday, October 23, 2018, 10:50 PM EDT
Back to Local

KFAF, Fort Eustis / Felker

Location: Fort Eustis, VA, United States Lat: 37.133
Local Time: 10:50 PM EDT ( 2:50 GMT) Lon: -76.617
Time Zone: US/Eastern Elev: 13 ft

Show me the last for .
Show Coded

Time T Td Feel RH Dir Speed Gust Alt SLP Vis Weather Sky Remarks
2018-10-23 21:56 58 46 - 64 220° 6 - 30.03 - 10 CLR None
2018-10-23 20:56 59 49 - 69 200° 3 - 30.03 30.04 10 CLR None
2018-10-23 19:56 60 49 - 67 200° 5 - 30.02 30.03 8 CLR 6-hr Min Temp (8pm): 59.9°F
6-hr Max Temp (8pm): 70.2°F
2018-10-23 18:56 62 50 - 64 200° 5 - 30.01 30.02 8 CLR None
2018-10-23 17:56 65 46 - 50 230° 8 - 30.00 30.01 10 CLR None
2018-10-23 16:56 69 45 - 42 230° 6 - 30.00 30.01 10 CLR None
2018-10-23 15:56 69 46 - 43 220° 9 - 29.99 30.00 10 CLR None
2018-10-23 14:56 69 44 - 40 210° 7 - 30.01 30.02 10 CLR None
2018-10-23 13:56 68 45 - 42 250° 7 - 30.04 30.05 10 CLR 6-hr Min Temp (2pm): 49.8°F
6-hr Max Temp (2pm): 68.5°F
2018-10-23 12:56 65 45 - 48 240° 5 - 30.08 30.09 10 CLR None
2018-10-23 11:56 62 46 - 54 230° 6 - 30.11 30.12 10 CLR None
2018-10-23 10:56 58 45 - 61 220° 3 - 30.12 30.13 10 CLR None
2018-10-23 09:56 54 43 - 65 230° 7 - 30.13 30.14 10 CLR None
2018-10-23 08:56 52 42 - 67 220° 6 - 30.14 30.15 10 CLR None
2018-10-23 07:56 50 41 - 69 - Calm - 30.13 30.14 10 CLR 6-hr Min Temp (8am): 49.3°F
6-hr Max Temp (8am): 52.0°F
2018-10-23 06:56 50 40 47 70 200° 7 - 30.12 30.13 10 CLR None
2018-10-23 05:56 50 40 47 70 210° 7 - 30.13 30.14 10 CLR None
2018-10-23 04:56 49 41 46 71 200° 7 - 30.13 30.14 10 CLR None
2018-10-23 03:56 51 40 - 65 200° 6 - 30.14 30.15 10 CLR None
2018-10-23 02:56 52 39 - 62 200° 5 - 30.16 30.17 10 CLR None
2018-10-23 01:56 52 40 - 62 200° 8 - 30.18 30.19 10 CLR 6-hr Min Temp (2am): 51.6°F
6-hr Max Temp (2am): 54.9°F
2018-10-23 00:56 52 40 - 63 210° 7 - 30.19 30.20 10 CLR 24-hr Min Temp (1am): 37.4°F
24-hr Max Temp (1am): 59.7°F
2018-10-22 23:56 53 40 - 60 200° 5 - 30.20 30.21 10 CLR None
2018-10-22 22:56 53 41 - 62 210° 5 - 30.21 30.22 10 CLR None

Support USWX by starting your Amazon purchase here.